Terminal Aerodrome Forecast
Issued by NWS Jackson, MS

Current Version | Previous Version | Text Only | Print | Product List | Glossary On
Versions: 1 2 3 4 5 6 7 8 9 10 11 12
000
FTUS44 KMEG 201727
TAFTUP
TAF
KTUP 201727Z 2018/2118 32004KT P6SM SCT060 SCT250
     FM210200 00000KT P6SM FEW250
     FM211500 VRB03KT P6SM SCT050=

USA.gov is the U.S. government's official web portal to all federal, state and local government web resources and services.